x

St Georges - 8nm Nw Of Crescent City, Ca (46027) Wave Buoy

10:50am - Wed 1st Oct 2014 All times are PDT. -7 hours from GMT.

  • Sig Wave height 7.5ft
  • Swell Direction
  • Peak Period 10s
  • Average Period 6s
  • Wind
    25mph, 31mph gusts
  • Sea Temp 54°f
  • Air Temp 55°f
  • Sea Pressure 1018.9mb
  • St Georges - 8nm Nw Of Crescent City, Ca
  • St Georges - 8nm Nw Of Crescent City, Ca

More Historic Weather Station data

Upgrade to MSW Pro to gain access to the past 30 days of data for over 8000 Wavebouys and Weather Stations around the globe.

Join Pro

Comparision Forecast

View Surf forecast
   
Wed 10/01 10:50am 7.5ft 10s 6s 25 31 mph 1018.9mb 54f 55f
9:50am 7ft 10s 6s 20 25 mph 1019.6mb 54f 54f
8:50am 7.5ft 10s 6s 22 25 mph 1019.9mb 54f 54f
7:50am 6.5ft 11s 6s 22 27 mph 1019.7mb 54f 53f
6:50am 6ft 10s 6s 20 25 mph 1019.6mb 54f 53f
5:50am 6.5ft 11s 6s 18 22 mph 1019.3mb 54f 53f
4:50am 7ft 11s 6s 20 22 mph 1019.4mb 54f 53f
3:50am 7ft 11s 6s 20 25 mph 1019.5mb 54f 53f
2:50am 6.5ft 11s 6s 25 31 mph 1019.5mb 54f 54f
1:50am 6ft 11s 6s 22 27 mph 1019.6mb 55f 54f
12:50am 6.5ft 11s 6s 22 25 mph 1019.7mb 55f 55f
Tue 09/30 11:50pm 6.5ft 11s 6s 22 27 mph 1019.8mb 55f 55f
10:50pm 7ft 10s 6s 22 27 mph 1019.7mb 55f 55f
9:50pm 7ft 11s 6s 27 31 mph 1019.6mb 55f 55f
8:50pm 8ft 11s 6s 27 34 mph 1019.2mb 55f 55f
7:50pm 7.5ft 11s 6s 31 36 mph 1018.7mb 55f 55f
6:50pm 7.5ft 5s 5s 31 38 mph 1018.4mb 55f 55f
5:50pm 7ft 10s 6s 31 38 mph 1018.3mb 55f 55f
4:50pm 6.5ft 10s 6s 31 38 mph 1018.6mb 55f 56f
3:50pm 6.5ft 11s 6s 27 34 mph 1019.1mb 55f 56f
2:50pm 6ft 9s 6s 25 29 mph 1019.7mb 55f 56f
1:50pm 5.5ft 10s 6s 25 29 mph 1020.5mb 55f 55f
12:50pm 6ft 11s 6s 22 27 mph 1021.1mb 55f 55f
11:50am 5.5ft 11s 6s 18 22 mph 1021.3mb 55f 55f
10:50am  -   -   -  20 25 mph 1021.3mb 55f 55f
9:50am 6ft 11s 6s 18 22 mph 1021mb 55f 54f
8:50am 6ft 11s 7s 16 20 mph 1020.8mb 54f 54f
7:50am 6ft 11s 7s 13 16 mph 1020.7mb 54f 53f
6:50am 6.5ft 11s 7s 13 16 mph 1020.4mb 54f 54f
5:50am 6ft 11s 6s 18 20 mph 1019.9mb 54f 53f
4:50am 5.5ft 11s 7s 16 20 mph 1019.5mb 55f 53f
3:50am 5ft 10s 6s 18 20 mph 1019.3mb 55f 54f
2:50am 6ft 12s 7s 16 18 mph 1019.3mb 55f 54f
1:50am 5.5ft 11s 7s 16 20 mph 1019.2mb 55f 53f
12:50am 5.5ft 11s 7s 13 18 mph 1019.2mb 55f 52f
Mon 09/29 11:50pm 6ft 11s 8s 16 18 mph 1019.2mb 55f 53f
10:50pm  -   -   -  13 18 mph 1019.5mb 55f 53f
9:50pm 6ft 10s 9s 7 9 mph 1019.7mb 56f 54f
8:50pm 6ft 11s 8s 4 7 mph 1019.4mb 56f 53f
7:50pm 5.5ft 10s 8s 2 4 mph 1019.1mb 56f 53f
6:50pm 5ft 12s 8s 4
mph
1018.8mb 57f 53f
5:50pm 5.5ft 10s 8s 2 4 mph 1018.5mb 58f 55f
4:50pm 5ft 11s 8s 4
mph
1018.4mb 57f 56f
3:50pm 4.5ft 8s 7s 2 4 mph 1018.5mb 58f 57f
2:50pm 4.5ft 8s 7s 4 7 mph 1018.5mb 57f 58f
1:50pm 4ft 8s 7s 4 7 mph 1018.8mb 57f 57f
12:50pm 3.5ft 8s 7s 4
mph
1018.9mb 57f 59f
11:50am 3.5ft 8s 7s 2
mph
1019mb 57f 61f
10:50am 3.5ft 8s 7s  -  mph 1019.4mb 56f 60f
9:50am 3.5ft 8s 6s 2
mph
1019.4mb 56f 55f
8:50am 3.5ft 7s 6s  -  2 mph 1018.8mb 55f 54f
7:50am 3.5ft 8s 5s  -  2 mph 1018.4mb 55f 54f
6:50am 4ft 7s 5s  -  2 mph 1018.1mb 55f 55f
5:50am  -   -   -  7 9 mph 1017.3mb 55f 55f
4:50am 4ft 8s 5s 7
mph
1016.9mb 55f 55f
3:50am 4ft 7s 5s 11 13 mph 1016mb 55f 55f
2:50am 4.5ft 6s 5s 9 11 mph 1016.3mb 55f 55f
1:50am 4.5ft 6s 5s 9 11 mph 1016.1mb 55f 55f
12:50am 4.5ft 8s 5s 13 18 mph 1015.5mb 55f 55f
Sun 09/28 11:50pm 4.5ft 7s 5s 16 18 mph 1014.9mb 55f 54f
10:50pm 5ft 8s 5s 4 7 mph 1014.3mb 55f 53f
9:50pm 5ft 8s 5s 16 20 mph 1013.8mb 55f 54f
8:50pm 5.5ft 6s 5s 22 27 mph 1013.7mb 55f 55f
7:50pm 6.5ft 6s 5s 25 31 mph 1013.1mb 56f 55f
6:50pm 6ft 6s 5s 27 31 mph 1012.6mb 56f 56f
5:50pm 5.5ft 6s 5s 25 31 mph 1012.4mb 56f 56f
4:50pm 7ft 8s 5s 27 34 mph 1012.1mb 56f 56f
3:50pm 6.5ft 6s 5s 25 31 mph 1012.1mb 56f 56f
2:50pm 6ft 8s 5s 25 29 mph 1012.1mb 57f 56f
1:50pm  -   -   -  22 27 mph 1012.3mb 57f 56f
12:50pm 6ft 7s 5s 25 29 mph 1012.4mb 57f 56f
11:50am 6ft 8s 6s 20 25 mph 1012.9mb 57f 56f
10:50am 6.5ft 6s 5s 20 25 mph 1013.4mb 57f 55f
9:50am 6ft 9s 5s 22 25 mph 1013.6mb 57f 55f
8:50am 6ft 8s 6s 18 22 mph 1013.5mb 57f 55f
7:50am 7ft 7s 6s 18 20 mph 1013mb 57f 55f
6:50am 7ft 10s 6s 20 22 mph 1012.7mb 57f 55f
5:50am 7ft 10s 6s 20 25 mph 1012.3mb 57f 55f
4:50am 6.5ft 7s 6s 20 25 mph 1013.1mb 57f 55f
3:50am 7ft 8s 6s 22 25 mph 1013.4mb 57f 55f
2:50am 6.5ft 9s 6s 20 25 mph 1013.6mb 57f 55f
1:50am 7ft 10s 6s 22 27 mph 1013.7mb 57f 55f
12:50am 7ft 9s 6s 22 27 mph 1013.9mb 57f 55f
Sat 09/27 11:50pm 8ft 10s 6s 22 27 mph 1014.2mb 57f 55f
10:50pm 8ft 11s 6s 27 31 mph 1014.3mb 57f 56f
9:50pm 8ft 10s 6s 27 29 mph 1014.7mb 57f 56f
8:50pm 9.5ft 11s 6s 29 36 mph 1014.4mb 57f 56f
7:50pm 9ft 11s 6s 31 38 mph 1013.7mb 57f 56f